sensor_id;sensor_type;location;lat;lon;timestamp;P1;durP1;ratioP1;P2;durP2;ratioP2
7213;SDS011;3648;50.614;13.830;2023-04-25T00:01:20;6.73;;;3.13;;
7213;SDS011;3648;50.614;13.830;2023-04-25T00:03:49;6.30;;;3.57;;
7213;SDS011;3648;50.614;13.830;2023-04-25T00:06:16;5.57;;;3.10;;
7213;SDS011;3648;50.614;13.830;2023-04-25T00:08:43;3.97;;;3.43;;
7213;SDS011;3648;50.614;13.830;2023-04-25T00:11:10;4.73;;;4.00;;
7213;SDS011;3648;50.614;13.830;2023-04-25T00:13:37;19.23;;;11.97;;
7213;SDS011;3648;50.614;13.830;2023-04-25T00:16:06;18.53;;;11.13;;
7213;SDS011;3648;50.614;13.830;2023-04-25T00:18:33;15.00;;;9.57;;
7213;SDS011;3648;50.614;13.830;2023-04-25T00:21:02;11.80;;;6.97;;
7213;SDS011;3648;50.614;13.830;2023-04-25T00:23:31;9.20;;;5.17;;
7213;SDS011;3648;50.614;13.830;2023-04-25T00:25:58;5.93;;;4.50;;
7213;SDS011;3648;50.614;13.830;2023-04-25T00:28:25;12.67;;;4.53;;
7213;SDS011;3648;50.614;13.830;2023-04-25T00:30:52;5.73;;;4.17;;
7213;SDS011;3648;50.614;13.830;2023-04-25T00:33:18;4.13;;;3.53;;
7213;SDS011;3648;50.614;13.830;2023-04-25T00:35:46;4.00;;;3.20;;
7213;SDS011;3648;50.614;13.830;2023-04-25T00:38:14;4.57;;;3.30;;
7213;SDS011;3648;50.614;13.830;2023-04-25T00:40:41;4.87;;;3.23;;
7213;SDS011;3648;50.614;13.830;2023-04-25T00:43:08;6.83;;;5.00;;
7213;SDS011;3648;50.614;13.830;2023-04-25T00:45:35;4.63;;;3.33;;
7213;SDS011;3648;50.614;13.830;2023-04-25T00:48:04;4.50;;;3.20;;
7213;SDS011;3648;50.614;13.830;2023-04-25T00:50:32;4.60;;;3.10;;
7213;SDS011;3648;50.614;13.830;2023-04-25T00:53:00;4.63;;;2.97;;
7213;SDS011;3648;50.614;13.830;2023-04-25T00:55:29;5.67;;;3.10;;
7213;SDS011;3648;50.614;13.830;2023-04-25T00:57:57;4.87;;;3.13;;
7213;SDS011;3648;50.614;13.830;2023-04-25T01:00:24;3.33;;;3.03;;
7213;SDS011;3648;50.614;13.830;2023-04-25T01:02:51;3.43;;;3.13;;
7213;SDS011;3648;50.614;13.830;2023-04-25T01:05:19;10.17;;;5.23;;
7213;SDS011;3648;50.614;13.830;2023-04-25T01:07:46;5.53;;;3.60;;
7213;SDS011;3648;50.614;13.830;2023-04-25T01:10:13;4.50;;;3.33;;
7213;SDS011;3648;50.614;13.830;2023-04-25T01:12:41;4.50;;;3.60;;
7213;SDS011;3648;50.614;13.830;2023-04-25T01:15:08;4.30;;;3.27;;
7213;SDS011;3648;50.614;13.830;2023-04-25T01:17:36;3.70;;;3.03;;
7213;SDS011;3648;50.614;13.830;2023-04-25T01:20:04;4.93;;;3.80;;
7213;SDS011;3648;50.614;13.830;2023-04-25T01:22:36;4.03;;;3.40;;
7213;SDS011;3648;50.614;13.830;2023-04-25T01:25:03;3.83;;;2.97;;
7213;SDS011;3648;50.614;13.830;2023-04-25T01:27:30;4.20;;;3.57;;
7213;SDS011;3648;50.614;13.830;2023-04-25T01:29:58;11.07;;;8.50;;
7213;SDS011;3648;50.614;13.830;2023-04-25T01:32:25;7.70;;;5.73;;
7213;SDS011;3648;50.614;13.830;2023-04-25T01:34:53;5.60;;;4.33;;
7213;SDS011;3648;50.614;13.830;2023-04-25T01:37:20;6.67;;;4.43;;
7213;SDS011;3648;50.614;13.830;2023-04-25T01:39:48;5.27;;;4.07;;
7213;SDS011;3648;50.614;13.830;2023-04-25T01:42:16;4.73;;;4.07;;
7213;SDS011;3648;50.614;13.830;2023-04-25T01:44:44;5.67;;;4.10;;
7213;SDS011;3648;50.614;13.830;2023-04-25T01:47:11;4.87;;;3.83;;
7213;SDS011;3648;50.614;13.830;2023-04-25T01:49:38;5.30;;;4.03;;
7213;SDS011;3648;50.614;13.830;2023-04-25T01:52:05;5.77;;;4.60;;
7213;SDS011;3648;50.614;13.830;2023-04-25T01:54:32;7.70;;;5.03;;
7213;SDS011;3648;50.614;13.830;2023-04-25T01:57:00;6.00;;;4.77;;
7213;SDS011;3648;50.614;13.830;2023-04-25T01:59:27;6.13;;;4.43;;
7213;SDS011;3648;50.614;13.830;2023-04-25T02:01:54;4.87;;;4.10;;
7213;SDS011;3648;50.614;13.830;2023-04-25T02:04:21;5.30;;;3.97;;
7213;SDS011;3648;50.614;13.830;2023-04-25T02:06:48;5.70;;;4.10;;
7213;SDS011;3648;50.614;13.830;2023-04-25T02:09:15;4.93;;;4.20;;
7213;SDS011;3648;50.614;13.830;2023-04-25T02:11:41;5.93;;;4.07;;
7213;SDS011;3648;50.614;13.830;2023-04-25T02:14:10;5.80;;;3.53;;
7213;SDS011;3648;50.614;13.830;2023-04-25T02:16:37;5.10;;;4.33;;
7213;SDS011;3648;50.614;13.830;2023-04-25T02:19:03;4.93;;;4.00;;
7213;SDS011;3648;50.614;13.830;2023-04-25T02:21:31;6.10;;;4.57;;
7213;SDS011;3648;50.614;13.830;2023-04-25T02:24:00;4.50;;;3.80;;
7213;SDS011;3648;50.614;13.830;2023-04-25T02:26:27;5.70;;;4.43;;
7213;SDS011;3648;50.614;13.830;2023-04-25T02:28:55;7.87;;;4.93;;
7213;SDS011;3648;50.614;13.830;2023-04-25T02:31:24;7.67;;;4.80;;
7213;SDS011;3648;50.614;13.830;2023-04-25T02:33:51;13.40;;;7.73;;
7213;SDS011;3648;50.614;13.830;2023-04-25T02:36:18;11.93;;;8.17;;
7213;SDS011;3648;50.614;13.830;2023-04-25T02:38:45;17.53;;;8.30;;
7213;SDS011;3648;50.614;13.830;2023-04-25T02:41:11;10.00;;;6.67;;
7213;SDS011;3648;50.614;13.830;2023-04-25T02:43:38;8.93;;;6.10;;
7213;SDS011;3648;50.614;13.830;2023-04-25T02:46:05;8.50;;;5.83;;
7213;SDS011;3648;50.614;13.830;2023-04-25T02:48:34;9.03;;;6.10;;
7213;SDS011;3648;50.614;13.830;2023-04-25T02:51:01;8.33;;;5.70;;
7213;SDS011;3648;50.614;13.830;2023-04-25T02:53:28;10.27;;;6.30;;
7213;SDS011;3648;50.614;13.830;2023-04-25T02:55:54;25.47;;;14.37;;
7213;SDS011;3648;50.614;13.830;2023-04-25T02:58:23;14.80;;;8.03;;
7213;SDS011;3648;50.614;13.830;2023-04-25T03:00:50;9.53;;;7.13;;
7213;SDS011;3648;50.614;13.830;2023-04-25T03:03:17;9.93;;;6.57;;
7213;SDS011;3648;50.614;13.830;2023-04-25T03:05:48;15.63;;;9.80;;
7213;SDS011;3648;50.614;13.830;2023-04-25T03:08:15;14.13;;;8.97;;
7213;SDS011;3648;50.614;13.830;2023-04-25T03:10:42;16.83;;;8.27;;
7213;SDS011;3648;50.614;13.830;2023-04-25T03:13:10;13.13;;;8.37;;
7213;SDS011;3648;50.614;13.830;2023-04-25T03:15:37;13.13;;;8.53;;
7213;SDS011;3648;50.614;13.830;2023-04-25T03:18:05;9.63;;;6.63;;
7213;SDS011;3648;50.614;13.830;2023-04-25T03:20:32;11.50;;;6.10;;
7213;SDS011;3648;50.614;13.830;2023-04-25T03:23:00;9.70;;;5.90;;
7213;SDS011;3648;50.614;13.830;2023-04-25T03:25:27;8.47;;;6.10;;
7213;SDS011;3648;50.614;13.830;2023-04-25T03:27:54;12.57;;;5.77;;
7213;SDS011;3648;50.614;13.830;2023-04-25T03:30:21;8.67;;;5.33;;
7213;SDS011;3648;50.614;13.830;2023-04-25T03:32:48;8.17;;;5.17;;
7213;SDS011;3648;50.614;13.830;2023-04-25T03:35:15;7.53;;;6.10;;
7213;SDS011;3648;50.614;13.830;2023-04-25T03:37:42;15.13;;;10.53;;
7213;SDS011;3648;50.614;13.830;2023-04-25T03:40:11;12.40;;;9.00;;
7213;SDS011;3648;50.614;13.830;2023-04-25T03:42:38;10.10;;;7.60;;
7213;SDS011;3648;50.614;13.830;2023-04-25T03:45:06;9.33;;;5.67;;
7213;SDS011;3648;50.614;13.830;2023-04-25T03:47:34;11.70;;;6.53;;
7213;SDS011;3648;50.614;13.830;2023-04-25T03:50:01;8.90;;;6.07;;
7213;SDS011;3648;50.614;13.830;2023-04-25T03:52:28;8.93;;;6.43;;
7213;SDS011;3648;50.614;13.830;2023-04-25T03:54:54;6.77;;;5.47;;
7213;SDS011;3648;50.614;13.830;2023-04-25T03:57:23;10.80;;;7.23;;
7213;SDS011;3648;50.614;13.830;2023-04-25T03:59:50;9.90;;;6.50;;
7213;SDS011;3648;50.614;13.830;2023-04-25T04:02:17;9.20;;;6.47;;
7213;SDS011;3648;50.614;13.830;2023-04-25T04:04:44;8.47;;;6.67;;
7213;SDS011;3648;50.614;13.830;2023-04-25T04:07:11;11.40;;;7.23;;
7213;SDS011;3648;50.614;13.830;2023-04-25T04:09:38;12.00;;;7.33;;
7213;SDS011;3648;50.614;13.830;2023-04-25T04:12:05;9.07;;;6.80;;
7213;SDS011;3648;50.614;13.830;2023-04-25T04:14:34;7.37;;;5.87;;
7213;SDS011;3648;50.614;13.830;2023-04-25T04:17:00;10.27;;;6.00;;
7213;SDS011;3648;50.614;13.830;2023-04-25T04:19:27;10.47;;;7.27;;
7213;SDS011;3648;50.614;13.830;2023-04-25T04:21:54;13.53;;;7.77;;
7213;SDS011;3648;50.614;13.830;2023-04-25T04:24:21;8.83;;;6.50;;
7213;SDS011;3648;50.614;13.830;2023-04-25T04:26:49;8.80;;;6.53;;
7213;SDS011;3648;50.614;13.830;2023-04-25T04:29:17;6.73;;;5.93;;
7213;SDS011;3648;50.614;13.830;2023-04-25T04:31:48;7.67;;;6.30;;
7213;SDS011;3648;50.614;13.830;2023-04-25T04:34:16;7.33;;;6.33;;
7213;SDS011;3648;50.614;13.830;2023-04-25T04:36:44;9.83;;;6.50;;
7213;SDS011;3648;50.614;13.830;2023-04-25T04:39:11;7.17;;;5.53;;
7213;SDS011;3648;50.614;13.830;2023-04-25T04:41:38;10.03;;;5.90;;
7213;SDS011;3648;50.614;13.830;2023-04-25T04:44:05;8.67;;;5.53;;
7213;SDS011;3648;50.614;13.830;2023-04-25T04:46:34;8.07;;;5.50;;
7213;SDS011;3648;50.614;13.830;2023-04-25T04:49:07;7.60;;;5.33;;
7213;SDS011;3648;50.614;13.830;2023-04-25T04:51:34;7.63;;;5.37;;
7213;SDS011;3648;50.614;13.830;2023-04-25T04:54:01;12.60;;;7.40;;
7213;SDS011;3648;50.614;13.830;2023-04-25T04:56:29;8.47;;;5.77;;
7213;SDS011;3648;50.614;13.830;2023-04-25T04:58:56;7.80;;;5.57;;
7213;SDS011;3648;50.614;13.830;2023-04-25T05:01:24;9.90;;;5.43;;
7213;SDS011;3648;50.614;13.830;2023-04-25T05:03:52;11.23;;;8.50;;
7213;SDS011;3648;50.614;13.830;2023-04-25T05:06:20;10.93;;;8.57;;
7213;SDS011;3648;50.614;13.830;2023-04-25T05:08:47;9.27;;;7.73;;
7213;SDS011;3648;50.614;13.830;2023-04-25T05:11:14;9.40;;;6.87;;
7213;SDS011;3648;50.614;13.830;2023-04-25T05:13:41;9.07;;;6.33;;
7213;SDS011;3648;50.614;13.830;2023-04-25T05:16:08;6.40;;;5.67;;
7213;SDS011;3648;50.614;13.830;2023-04-25T05:18:35;5.87;;;4.93;;
7213;SDS011;3648;50.614;13.830;2023-04-25T05:21:02;6.23;;;5.57;;
7213;SDS011;3648;50.614;13.830;2023-04-25T05:23:30;9.20;;;6.00;;
7213;SDS011;3648;50.614;13.830;2023-04-25T05:25:57;9.30;;;6.60;;
7213;SDS011;3648;50.614;13.830;2023-04-25T05:28:24;17.27;;;11.87;;
7213;SDS011;3648;50.614;13.830;2023-04-25T05:30:51;14.73;;;10.90;;
7213;SDS011;3648;50.614;13.830;2023-04-25T05:33:18;12.03;;;8.70;;
7213;SDS011;3648;50.614;13.830;2023-04-25T05:35:45;10.63;;;7.23;;
7213;SDS011;3648;50.614;13.830;2023-04-25T05:38:12;9.83;;;8.50;;
7213;SDS011;3648;50.614;13.830;2023-04-25T05:40:41;10.93;;;7.30;;
7213;SDS011;3648;50.614;13.830;2023-04-25T05:43:08;9.53;;;7.33;;
7213;SDS011;3648;50.614;13.830;2023-04-25T05:45:34;12.07;;;7.30;;
7213;SDS011;3648;50.614;13.830;2023-04-25T05:48:01;10.87;;;8.73;;
7213;SDS011;3648;50.614;13.830;2023-04-25T05:50:28;11.03;;;8.90;;
7213;SDS011;3648;50.614;13.830;2023-04-25T05:52:55;10.63;;;8.67;;
7213;SDS011;3648;50.614;13.830;2023-04-25T05:55:22;11.17;;;8.97;;
7213;SDS011;3648;50.614;13.830;2023-04-25T05:57:51;8.93;;;7.80;;
7213;SDS011;3648;50.614;13.830;2023-04-25T06:00:18;9.40;;;7.03;;
7213;SDS011;3648;50.614;13.830;2023-04-25T06:02:47;7.93;;;7.10;;
7213;SDS011;3648;50.614;13.830;2023-04-25T06:05:14;8.63;;;6.53;;
7213;SDS011;3648;50.614;13.830;2023-04-25T06:07:41;8.90;;;6.60;;
7213;SDS011;3648;50.614;13.830;2023-04-25T06:10:08;6.73;;;5.63;;
7213;SDS011;3648;50.614;13.830;2023-04-25T06:12:35;7.97;;;6.13;;
7213;SDS011;3648;50.614;13.830;2023-04-25T06:15:05;7.47;;;5.93;;
7213;SDS011;3648;50.614;13.830;2023-04-25T06:17:33;9.77;;;7.83;;
7213;SDS011;3648;50.614;13.830;2023-04-25T06:20:00;12.23;;;9.23;;
7213;SDS011;3648;50.614;13.830;2023-04-25T06:22:28;13.10;;;9.80;;
7213;SDS011;3648;50.614;13.830;2023-04-25T06:24:54;14.93;;;11.43;;
7213;SDS011;3648;50.614;13.830;2023-04-25T06:27:24;16.37;;;12.20;;
7213;SDS011;3648;50.614;13.830;2023-04-25T06:29:51;14.10;;;9.60;;
7213;SDS011;3648;50.614;13.830;2023-04-25T06:32:19;12.57;;;9.00;;
7213;SDS011;3648;50.614;13.830;2023-04-25T06:34:46;10.50;;;8.00;;
7213;SDS011;3648;50.614;13.830;2023-04-25T06:37:13;10.63;;;7.23;;
7213;SDS011;3648;50.614;13.830;2023-04-25T06:39:40;7.40;;;6.70;;
7213;SDS011;3648;50.614;13.830;2023-04-25T06:42:07;9.87;;;7.07;;
7213;SDS011;3648;50.614;13.830;2023-04-25T06:44:34;18.07;;;13.37;;
7213;SDS011;3648;50.614;13.830;2023-04-25T06:47:00;12.53;;;8.80;;
7213;SDS011;3648;50.614;13.830;2023-04-25T06:49:29;11.27;;;7.93;;
7213;SDS011;3648;50.614;13.830;2023-04-25T06:51:56;13.23;;;8.57;;
7213;SDS011;3648;50.614;13.830;2023-04-25T06:54:23;22.07;;;14.87;;
7213;SDS011;3648;50.614;13.830;2023-04-25T06:56:52;22.93;;;14.80;;
7213;SDS011;3648;50.614;13.830;2023-04-25T06:59:19;19.20;;;12.20;;
7213;SDS011;3648;50.614;13.830;2023-04-25T07:01:45;25.93;;;14.83;;
7213;SDS011;3648;50.614;13.830;2023-04-25T07:04:12;16.50;;;9.73;;
7213;SDS011;3648;50.614;13.830;2023-04-25T07:06:41;15.53;;;10.17;;
7213;SDS011;3648;50.614;13.830;2023-04-25T07:09:08;15.50;;;9.40;;
7213;SDS011;3648;50.614;13.830;2023-04-25T07:11:35;15.30;;;8.90;;
7213;SDS011;3648;50.614;13.830;2023-04-25T07:14:02;11.83;;;8.13;;
7213;SDS011;3648;50.614;13.830;2023-04-25T07:16:29;10.37;;;7.40;;
7213;SDS011;3648;50.614;13.830;2023-04-25T07:18:56;10.20;;;7.00;;
7213;SDS011;3648;50.614;13.830;2023-04-25T07:21:24;11.10;;;8.17;;
7213;SDS011;3648;50.614;13.830;2023-04-25T07:23:52;12.67;;;9.20;;
7213;SDS011;3648;50.614;13.830;2023-04-25T07:26:19;15.03;;;11.33;;
7213;SDS011;3648;50.614;13.830;2023-04-25T07:28:46;15.73;;;10.37;;
7213;SDS011;3648;50.614;13.830;2023-04-25T07:31:16;13.67;;;9.07;;
7213;SDS011;3648;50.614;13.830;2023-04-25T07:33:43;11.30;;;9.47;;
7213;SDS011;3648;50.614;13.830;2023-04-25T07:36:11;10.23;;;7.77;;
7213;SDS011;3648;50.614;13.830;2023-04-25T07:38:40;10.83;;;7.20;;
7213;SDS011;3648;50.614;13.830;2023-04-25T07:41:08;10.47;;;7.03;;
7213;SDS011;3648;50.614;13.830;2023-04-25T07:43:35;12.90;;;8.07;;
7213;SDS011;3648;50.614;13.830;2023-04-25T07:46:02;14.13;;;9.93;;
7213;SDS011;3648;50.614;13.830;2023-04-25T07:48:30;16.03;;;11.77;;
7213;SDS011;3648;50.614;13.830;2023-04-25T07:50:57;13.40;;;7.80;;
7213;SDS011;3648;50.614;13.830;2023-04-25T07:53:24;13.67;;;8.77;;
7213;SDS011;3648;50.614;13.830;2023-04-25T07:55:50;12.27;;;8.40;;
7213;SDS011;3648;50.614;13.830;2023-04-25T07:58:19;9.90;;;7.67;;
7213;SDS011;3648;50.614;13.830;2023-04-25T08:00:47;14.43;;;8.73;;
7213;SDS011;3648;50.614;13.830;2023-04-25T08:03:14;15.13;;;9.30;;
7213;SDS011;3648;50.614;13.830;2023-04-25T08:05:41;23.20;;;11.83;;
7213;SDS011;3648;50.614;13.830;2023-04-25T08:08:08;17.73;;;9.87;;
7213;SDS011;3648;50.614;13.830;2023-04-25T08:10:35;17.33;;;10.50;;
7213;SDS011;3648;50.614;13.830;2023-04-25T08:13:02;27.13;;;15.27;;
7213;SDS011;3648;50.614;13.830;2023-04-25T08:15:30;21.20;;;12.87;;
7213;SDS011;3648;50.614;13.830;2023-04-25T08:17:57;28.37;;;16.03;;
7213;SDS011;3648;50.614;13.830;2023-04-25T08:20:24;23.23;;;13.60;;
7213;SDS011;3648;50.614;13.830;2023-04-25T08:22:51;34.27;;;16.07;;
7213;SDS011;3648;50.614;13.830;2023-04-25T08:25:18;21.73;;;10.00;;
7213;SDS011;3648;50.614;13.830;2023-04-25T08:27:45;23.13;;;13.63;;
7213;SDS011;3648;50.614;13.830;2023-04-25T08:30:12;27.20;;;13.57;;
7213;SDS011;3648;50.614;13.830;2023-04-25T08:32:41;18.20;;;9.83;;
7213;SDS011;3648;50.614;13.830;2023-04-25T08:35:08;17.63;;;9.87;;
7213;SDS011;3648;50.614;13.830;2023-04-25T08:37:36;11.37;;;7.90;;
7213;SDS011;3648;50.614;13.830;2023-04-25T08:40:05;10.07;;;7.17;;
7213;SDS011;3648;50.614;13.830;2023-04-25T08:42:35;9.83;;;6.50;;
7213;SDS011;3648;50.614;13.830;2023-04-25T08:45:04;10.17;;;7.03;;
7213;SDS011;3648;50.614;13.830;2023-04-25T08:47:32;12.60;;;7.97;;
7213;SDS011;3648;50.614;13.830;2023-04-25T08:50:03;9.10;;;5.77;;
7213;SDS011;3648;50.614;13.830;2023-04-25T08:52:34;6.67;;;5.70;;
7213;SDS011;3648;50.614;13.830;2023-04-25T08:55:03;8.77;;;6.20;;
7213;SDS011;3648;50.614;13.830;2023-04-25T08:57:33;5.87;;;4.20;;
7213;SDS011;3648;50.614;13.830;2023-04-25T09:00:01;5.60;;;4.83;;
7213;SDS011;3648;50.614;13.830;2023-04-25T09:02:30;3.53;;;2.93;;
7213;SDS011;3648;50.614;13.830;2023-04-25T09:04:57;5.63;;;3.40;;
7213;SDS011;3648;50.614;13.830;2023-04-25T09:07:26;3.47;;;2.80;;
7213;SDS011;3648;50.614;13.830;2023-04-25T09:09:53;3.13;;;2.33;;
7213;SDS011;3648;50.614;13.830;2023-04-25T09:12:20;3.57;;;2.40;;
7213;SDS011;3648;50.614;13.830;2023-04-25T09:15:01;2.73;;;2.40;;
7213;SDS011;3648;50.614;13.830;2023-04-25T09:17:30;3.83;;;2.83;;
7213;SDS011;3648;50.614;13.830;2023-04-25T09:20:05;4.97;;;3.20;;
7213;SDS011;3648;50.614;13.830;2023-04-25T09:22:35;2.80;;;2.10;;
7213;SDS011;3648;50.614;13.830;2023-04-25T09:25:03;4.23;;;2.40;;
7213;SDS011;3648;50.614;13.830;2023-04-25T09:27:33;3.93;;;2.60;;
7213;SDS011;3648;50.614;13.830;2023-04-25T09:30:00;5.73;;;3.20;;
7213;SDS011;3648;50.614;13.830;2023-04-25T09:32:28;3.87;;;2.73;;
7213;SDS011;3648;50.614;13.830;2023-04-25T09:34:55;3.67;;;2.57;;
7213;SDS011;3648;50.614;13.830;2023-04-25T09:37:24;2.93;;;2.73;;
7213;SDS011;3648;50.614;13.830;2023-04-25T09:39:54;3.80;;;3.20;;
7213;SDS011;3648;50.614;13.830;2023-04-25T09:42:22;3.20;;;2.90;;
7213;SDS011;3648;50.614;13.830;2023-04-25T09:44:51;4.27;;;2.50;;
7213;SDS011;3648;50.614;13.830;2023-04-25T09:47:18;3.40;;;2.50;;
7213;SDS011;3648;50.614;13.830;2023-04-25T09:49:47;3.50;;;2.87;;
7213;SDS011;3648;50.614;13.830;2023-04-25T09:52:15;3.50;;;2.20;;
7213;SDS011;3648;50.614;13.830;2023-04-25T09:54:44;2.73;;;2.43;;
7213;SDS011;3648;50.614;13.830;2023-04-25T09:57:13;4.73;;;2.20;;
7213;SDS011;3648;50.614;13.830;2023-04-25T09:59:44;2.70;;;2.17;;
7213;SDS011;3648;50.614;13.830;2023-04-25T10:02:13;2.60;;;2.23;;
7213;SDS011;3648;50.614;13.830;2023-04-25T10:04:41;3.53;;;2.20;;
7213;SDS011;3648;50.614;13.830;2023-04-25T10:07:13;4.03;;;2.47;;
7213;SDS011;3648;50.614;13.830;2023-04-25T10:09:41;2.60;;;2.20;;
7213;SDS011;3648;50.614;13.830;2023-04-25T10:12:10;2.27;;;2.03;;
7213;SDS011;3648;50.614;13.830;2023-04-25T10:14:39;3.10;;;2.47;;
7213;SDS011;3648;50.614;13.830;2023-04-25T10:17:08;3.77;;;1.87;;
7213;SDS011;3648;50.614;13.830;2023-04-25T10:19:37;3.27;;;1.80;;
7213;SDS011;3648;50.614;13.830;2023-04-25T10:22:06;4.10;;;1.90;;
7213;SDS011;3648;50.614;13.830;2023-04-25T10:24:34;2.60;;;1.83;;
7213;SDS011;3648;50.614;13.830;2023-04-25T10:27:02;1.87;;;1.50;;
7213;SDS011;3648;50.614;13.830;2023-04-25T10:29:31;2.20;;;1.90;;
7213;SDS011;3648;50.614;13.830;2023-04-25T10:31:58;2.07;;;1.80;;
7213;SDS011;3648;50.614;13.830;2023-04-25T10:34:37;3.10;;;1.73;;
7213;SDS011;3648;50.614;13.830;2023-04-25T10:37:05;7.03;;;4.00;;
7213;SDS011;3648;50.614;13.830;2023-04-25T10:39:35;3.80;;;2.73;;
7213;SDS011;3648;50.614;13.830;2023-04-25T10:42:04;4.50;;;3.17;;
7213;SDS011;3648;50.614;13.830;2023-04-25T10:44:34;6.07;;;3.90;;
7213;SDS011;3648;50.614;13.830;2023-04-25T10:47:03;5.20;;;3.50;;
7213;SDS011;3648;50.614;13.830;2023-04-25T10:49:33;4.40;;;2.93;;
7213;SDS011;3648;50.614;13.830;2023-04-25T10:52:10;6.20;;;4.73;;
7213;SDS011;3648;50.614;13.830;2023-04-25T10:54:46;2.57;;;2.13;;
7213;SDS011;3648;50.614;13.830;2023-04-25T10:57:26;4.13;;;2.70;;
7213;SDS011;3648;50.614;13.830;2023-04-25T11:00:04;4.03;;;2.93;;
7213;SDS011;3648;50.614;13.830;2023-04-25T11:02:36;4.63;;;3.53;;
7213;SDS011;3648;50.614;13.830;2023-04-25T11:05:04;2.90;;;2.30;;
7213;SDS011;3648;50.614;13.830;2023-04-25T11:07:34;4.50;;;2.13;;
7213;SDS011;3648;50.614;13.830;2023-04-25T11:10:05;3.10;;;2.07;;
7213;SDS011;3648;50.614;13.830;2023-04-25T11:12:33;4.97;;;2.17;;
7213;SDS011;3648;50.614;13.830;2023-04-25T11:15:05;2.10;;;1.87;;
7213;SDS011;3648;50.614;13.830;2023-04-25T11:17:33;2.17;;;1.60;;
7213;SDS011;3648;50.614;13.830;2023-04-25T11:20:00;2.53;;;1.90;;
7213;SDS011;3648;50.614;13.830;2023-04-25T11:22:31;1.50;;;1.40;;
7213;SDS011;3648;50.614;13.830;2023-04-25T11:25:04;1.40;;;1.30;;
7213;SDS011;3648;50.614;13.830;2023-04-25T11:27:31;2.00;;;1.50;;
7213;SDS011;3648;50.614;13.830;2023-04-25T11:30:10;2.47;;;1.43;;
7213;SDS011;3648;50.614;13.830;2023-04-25T11:32:39;1.83;;;1.43;;
7213;SDS011;3648;50.614;13.830;2023-04-25T11:35:07;4.10;;;2.10;;
7213;SDS011;3648;50.614;13.830;2023-04-25T11:37:34;1.70;;;1.20;;
7213;SDS011;3648;50.614;13.830;2023-04-25T11:40:02;2.47;;;1.60;;
7213;SDS011;3648;50.614;13.830;2023-04-25T11:42:31;2.90;;;1.50;;
7213;SDS011;3648;50.614;13.830;2023-04-25T11:44:58;2.17;;;1.40;;
7213;SDS011;3648;50.614;13.830;2023-04-25T11:47:29;1.90;;;1.30;;
7213;SDS011;3648;50.614;13.830;2023-04-25T11:49:57;1.60;;;1.33;;
7213;SDS011;3648;50.614;13.830;2023-04-25T11:52:34;2.43;;;1.50;;
7213;SDS011;3648;50.614;13.830;2023-04-25T11:55:03;2.00;;;1.70;;
7213;SDS011;3648;50.614;13.830;2023-04-25T11:57:32;1.60;;;1.40;;
7213;SDS011;3648;50.614;13.830;2023-04-25T12:00:05;1.63;;;1.30;;
7213;SDS011;3648;50.614;13.830;2023-04-25T12:02:35;2.87;;;1.50;;
7213;SDS011;3648;50.614;13.830;2023-04-25T12:05:05;1.87;;;1.40;;
7213;SDS011;3648;50.614;13.830;2023-04-25T12:07:33;1.50;;;1.40;;
7213;SDS011;3648;50.614;13.830;2023-04-25T12:10:04;2.10;;;1.37;;
7213;SDS011;3648;50.614;13.830;2023-04-25T12:12:32;1.77;;;1.40;;
7213;SDS011;3648;50.614;13.830;2023-04-25T12:15:07;1.93;;;1.57;;
7213;SDS011;3648;50.614;13.830;2023-04-25T12:17:37;2.00;;;1.83;;
7213;SDS011;3648;50.614;13.830;2023-04-25T12:20:08;3.33;;;1.53;;
7213;SDS011;3648;50.614;13.830;2023-04-25T12:22:37;2.97;;;2.17;;
7213;SDS011;3648;50.614;13.830;2023-04-25T12:25:04;2.80;;;2.53;;
7213;SDS011;3648;50.614;13.830;2023-04-25T12:27:32;3.63;;;2.47;;
7213;SDS011;3648;50.614;13.830;2023-04-25T12:30:01;3.20;;;2.30;;
7213;SDS011;3648;50.614;13.830;2023-04-25T12:32:28;2.80;;;2.43;;
7213;SDS011;3648;50.614;13.830;2023-04-25T12:34:58;3.27;;;2.03;;
7213;SDS011;3648;50.614;13.830;2023-04-25T12:37:25;3.73;;;2.73;;
7213;SDS011;3648;50.614;13.830;2023-04-25T12:39:52;2.50;;;2.30;;
7213;SDS011;3648;50.614;13.830;2023-04-25T12:42:18;3.13;;;2.60;;
7213;SDS011;3648;50.614;13.830;2023-04-25T12:44:45;11.00;;;8.23;;
7213;SDS011;3648;50.614;13.830;2023-04-25T12:47:12;5.53;;;4.50;;
7213;SDS011;3648;50.614;13.830;2023-04-25T12:49:40;4.73;;;4.17;;
7213;SDS011;3648;50.614;13.830;2023-04-25T12:52:08;4.87;;;4.30;;
7213;SDS011;3648;50.614;13.830;2023-04-25T12:54:35;4.13;;;3.53;;
7213;SDS011;3648;50.614;13.830;2023-04-25T12:57:02;4.63;;;4.00;;
7213;SDS011;3648;50.614;13.830;2023-04-25T12:59:29;4.93;;;3.83;;
7213;SDS011;3648;50.614;13.830;2023-04-25T13:01:56;4.40;;;4.00;;
7213;SDS011;3648;50.614;13.830;2023-04-25T13:04:24;4.30;;;3.90;;
7213;SDS011;3648;50.614;13.830;2023-04-25T13:06:51;6.00;;;3.97;;
7213;SDS011;3648;50.614;13.830;2023-04-25T13:09:19;4.80;;;4.30;;
7213;SDS011;3648;50.614;13.830;2023-04-25T13:11:46;4.17;;;3.77;;
7213;SDS011;3648;50.614;13.830;2023-04-25T13:14:13;4.63;;;4.23;;
7213;SDS011;3648;50.614;13.830;2023-04-25T13:16:40;5.73;;;4.07;;
7213;SDS011;3648;50.614;13.830;2023-04-25T13:19:07;5.47;;;3.70;;
7213;SDS011;3648;50.614;13.830;2023-04-25T13:21:36;5.07;;;3.90;;
7213;SDS011;3648;50.614;13.830;2023-04-25T13:24:03;5.07;;;3.70;;
7213;SDS011;3648;50.614;13.830;2023-04-25T13:26:32;4.07;;;3.43;;
7213;SDS011;3648;50.614;13.830;2023-04-25T13:28:59;5.07;;;3.33;;
7213;SDS011;3648;50.614;13.830;2023-04-25T13:31:28;4.33;;;3.50;;
7213;SDS011;3648;50.614;13.830;2023-04-25T13:33:56;3.27;;;2.97;;
7213;SDS011;3648;50.614;13.830;2023-04-25T13:36:24;5.00;;;3.07;;
7213;SDS011;3648;50.614;13.830;2023-04-25T13:38:53;3.43;;;2.63;;
7213;SDS011;3648;50.614;13.830;2023-04-25T13:41:20;3.97;;;2.93;;
7213;SDS011;3648;50.614;13.830;2023-04-25T13:43:48;5.33;;;2.83;;
7213;SDS011;3648;50.614;13.830;2023-04-25T13:46:16;4.20;;;2.90;;
7213;SDS011;3648;50.614;13.830;2023-04-25T13:48:43;4.87;;;3.10;;
7213;SDS011;3648;50.614;13.830;2023-04-25T13:51:14;4.53;;;2.90;;
7213;SDS011;3648;50.614;13.830;2023-04-25T13:53:42;3.83;;;3.00;;
7213;SDS011;3648;50.614;13.830;2023-04-25T13:56:10;4.40;;;3.00;;
7213;SDS011;3648;50.614;13.830;2023-04-25T13:58:38;4.87;;;3.47;;
7213;SDS011;3648;50.614;13.830;2023-04-25T14:01:06;4.27;;;3.20;;
7213;SDS011;3648;50.614;13.830;2023-04-25T14:03:33;4.33;;;3.27;;
7213;SDS011;3648;50.614;13.830;2023-04-25T14:06:00;2.87;;;2.60;;
7213;SDS011;3648;50.614;13.830;2023-04-25T14:08:27;4.67;;;3.40;;
7213;SDS011;3648;50.614;13.830;2023-04-25T14:10:55;4.87;;;3.00;;
7213;SDS011;3648;50.614;13.830;2023-04-25T14:13:22;4.33;;;3.13;;
7213;SDS011;3648;50.614;13.830;2023-04-25T14:15:50;4.20;;;2.80;;
7213;SDS011;3648;50.614;13.830;2023-04-25T14:18:18;5.87;;;2.60;;
7213;SDS011;3648;50.614;13.830;2023-04-25T14:20:45;4.33;;;2.53;;
7213;SDS011;3648;50.614;13.830;2023-04-25T14:23:12;4.60;;;2.80;;
7213;SDS011;3648;50.614;13.830;2023-04-25T14:25:39;3.90;;;2.80;;
7213;SDS011;3648;50.614;13.830;2023-04-25T14:28:07;5.90;;;2.97;;
7213;SDS011;3648;50.614;13.830;2023-04-25T14:30:35;3.73;;;2.60;;
7213;SDS011;3648;50.614;13.830;2023-04-25T14:33:02;4.90;;;2.67;;
7213;SDS011;3648;50.614;13.830;2023-04-25T14:35:31;3.63;;;2.40;;
7213;SDS011;3648;50.614;13.830;2023-04-25T14:37:58;3.97;;;2.53;;
7213;SDS011;3648;50.614;13.830;2023-04-25T14:40:25;3.37;;;2.40;;
7213;SDS011;3648;50.614;13.830;2023-04-25T14:42:52;3.27;;;2.47;;
7213;SDS011;3648;50.614;13.830;2023-04-25T14:45:19;3.80;;;2.57;;
7213;SDS011;3648;50.614;13.830;2023-04-25T14:47:47;7.00;;;3.63;;
7213;SDS011;3648;50.614;13.830;2023-04-25T14:50:14;4.57;;;2.60;;
7213;SDS011;3648;50.614;13.830;2023-04-25T14:52:42;3.27;;;2.63;;
7213;SDS011;3648;50.614;13.830;2023-04-25T14:55:10;4.37;;;2.87;;
7213;SDS011;3648;50.614;13.830;2023-04-25T14:57:37;3.47;;;2.90;;
7213;SDS011;3648;50.614;13.830;2023-04-25T15:00:04;5.43;;;3.03;;